sensor_id;sensor_type;location;lat;lon;timestamp;P1;durP1;ratioP1;P2;durP2;ratioP2
16522;SDS011;19889;52.546;13.348;2024-03-06T00:02:19;17.03;;;13.07;;
16522;SDS011;19889;52.546;13.348;2024-03-06T00:04:46;17.93;;;12.83;;
16522;SDS011;19889;52.546;13.348;2024-03-06T00:07:13;19.97;;;12.97;;
16522;SDS011;19889;52.546;13.348;2024-03-06T00:09:41;19.27;;;13.33;;
16522;SDS011;19889;52.546;13.348;2024-03-06T00:12:10;21.20;;;13.63;;
16522;SDS011;19889;52.546;13.348;2024-03-06T00:14:37;21.03;;;13.70;;
16522;SDS011;19889;52.546;13.348;2024-03-06T00:17:05;18.40;;;12.30;;
16522;SDS011;19889;52.546;13.348;2024-03-06T00:19:33;20.40;;;13.83;;
16522;SDS011;19889;52.546;13.348;2024-03-06T00:22:00;17.87;;;12.87;;
16522;SDS011;19889;52.546;13.348;2024-03-06T00:24:27;19.77;;;13.00;;
16522;SDS011;19889;52.546;13.348;2024-03-06T00:26:55;17.80;;;12.93;;
16522;SDS011;19889;52.546;13.348;2024-03-06T00:29:22;20.03;;;13.73;;
16522;SDS011;19889;52.546;13.348;2024-03-06T00:31:49;17.87;;;13.10;;
16522;SDS011;19889;52.546;13.348;2024-03-06T00:34:18;18.60;;;13.17;;
16522;SDS011;19889;52.546;13.348;2024-03-06T00:36:46;20.37;;;14.13;;
16522;SDS011;19889;52.546;13.348;2024-03-06T00:39:13;20.17;;;14.07;;
16522;SDS011;19889;52.546;13.348;2024-03-06T00:41:40;18.10;;;13.20;;
16522;SDS011;19889;52.546;13.348;2024-03-06T00:44:08;16.33;;;12.57;;
16522;SDS011;19889;52.546;13.348;2024-03-06T00:46:35;17.03;;;12.87;;
16522;SDS011;19889;52.546;13.348;2024-03-06T00:49:02;22.27;;;14.50;;
16522;SDS011;19889;52.546;13.348;2024-03-06T00:51:31;17.33;;;12.30;;
16522;SDS011;19889;52.546;13.348;2024-03-06T00:54:01;19.30;;;13.10;;
16522;SDS011;19889;52.546;13.348;2024-03-06T00:56:29;19.77;;;12.63;;
16522;SDS011;19889;52.546;13.348;2024-03-06T00:58:57;16.03;;;12.47;;
16522;SDS011;19889;52.546;13.348;2024-03-06T01:01:24;16.97;;;13.13;;
16522;SDS011;19889;52.546;13.348;2024-03-06T01:03:52;21.53;;;13.60;;
16522;SDS011;19889;52.546;13.348;2024-03-06T01:06:20;18.83;;;12.33;;
16522;SDS011;19889;52.546;13.348;2024-03-06T01:08:49;18.43;;;11.83;;
16522;SDS011;19889;52.546;13.348;2024-03-06T01:11:16;19.77;;;13.70;;
16522;SDS011;19889;52.546;13.348;2024-03-06T01:13:43;21.63;;;13.83;;
16522;SDS011;19889;52.546;13.348;2024-03-06T01:16:10;17.80;;;12.47;;
16522;SDS011;19889;52.546;13.348;2024-03-06T01:18:37;17.50;;;11.87;;
16522;SDS011;19889;52.546;13.348;2024-03-06T01:21:04;16.77;;;12.43;;
16522;SDS011;19889;52.546;13.348;2024-03-06T01:23:32;16.67;;;11.70;;
16522;SDS011;19889;52.546;13.348;2024-03-06T01:26:00;17.20;;;11.47;;
16522;SDS011;19889;52.546;13.348;2024-03-06T01:28:27;16.63;;;11.90;;
16522;SDS011;19889;52.546;13.348;2024-03-06T01:30:54;15.83;;;12.53;;
16522;SDS011;19889;52.546;13.348;2024-03-06T01:33:23;16.93;;;11.23;;
16522;SDS011;19889;52.546;13.348;2024-03-06T01:35:51;16.47;;;11.67;;
16522;SDS011;19889;52.546;13.348;2024-03-06T01:38:18;15.50;;;11.17;;
16522;SDS011;19889;52.546;13.348;2024-03-06T01:40:45;17.90;;;12.43;;
16522;SDS011;19889;52.546;13.348;2024-03-06T01:43:20;14.50;;;12.00;;
16522;SDS011;19889;52.546;13.348;2024-03-06T01:45:48;14.43;;;10.07;;
16522;SDS011;19889;52.546;13.348;2024-03-06T01:48:16;17.50;;;13.47;;
16522;SDS011;19889;52.546;13.348;2024-03-06T01:50:44;13.00;;;10.27;;
16522;SDS011;19889;52.546;13.348;2024-03-06T01:53:12;16.33;;;11.10;;
16522;SDS011;19889;52.546;13.348;2024-03-06T01:55:41;16.97;;;12.43;;
16522;SDS011;19889;52.546;13.348;2024-03-06T01:58:09;17.10;;;12.50;;
16522;SDS011;19889;52.546;13.348;2024-03-06T02:00:38;16.97;;;11.70;;
16522;SDS011;19889;52.546;13.348;2024-03-06T02:03:05;16.50;;;11.13;;
16522;SDS011;19889;52.546;13.348;2024-03-06T02:05:32;13.97;;;10.90;;
16522;SDS011;19889;52.546;13.348;2024-03-06T02:08:00;15.77;;;10.60;;
16522;SDS011;19889;52.546;13.348;2024-03-06T02:10:27;14.63;;;10.70;;
16522;SDS011;19889;52.546;13.348;2024-03-06T02:12:54;14.57;;;11.00;;
16522;SDS011;19889;52.546;13.348;2024-03-06T02:15:22;15.47;;;11.03;;
16522;SDS011;19889;52.546;13.348;2024-03-06T02:17:51;13.30;;;10.20;;
16522;SDS011;19889;52.546;13.348;2024-03-06T02:20:22;14.97;;;11.03;;
16522;SDS011;19889;52.546;13.348;2024-03-06T02:22:50;17.00;;;11.80;;
16522;SDS011;19889;52.546;13.348;2024-03-06T02:25:17;14.20;;;10.73;;
16522;SDS011;19889;52.546;13.348;2024-03-06T02:27:45;15.37;;;11.37;;
16522;SDS011;19889;52.546;13.348;2024-03-06T02:30:14;13.97;;;10.33;;
16522;SDS011;19889;52.546;13.348;2024-03-06T02:32:41;14.83;;;10.97;;
16522;SDS011;19889;52.546;13.348;2024-03-06T02:35:09;13.90;;;10.23;;
16522;SDS011;19889;52.546;13.348;2024-03-06T02:37:38;12.70;;;11.13;;
16522;SDS011;19889;52.546;13.348;2024-03-06T02:40:07;15.13;;;10.23;;
16522;SDS011;19889;52.546;13.348;2024-03-06T02:42:35;15.07;;;11.13;;
16522;SDS011;19889;52.546;13.348;2024-03-06T02:45:04;13.53;;;10.77;;
16522;SDS011;19889;52.546;13.348;2024-03-06T02:47:32;13.97;;;10.83;;
16522;SDS011;19889;52.546;13.348;2024-03-06T02:49:59;16.67;;;11.27;;
16522;SDS011;19889;52.546;13.348;2024-03-06T02:52:27;17.67;;;11.77;;
16522;SDS011;19889;52.546;13.348;2024-03-06T02:54:55;14.70;;;11.17;;
16522;SDS011;19889;52.546;13.348;2024-03-06T02:57:23;16.07;;;11.67;;
16522;SDS011;19889;52.546;13.348;2024-03-06T02:59:53;13.20;;;10.23;;
16522;SDS011;19889;52.546;13.348;2024-03-06T03:02:20;14.33;;;9.93;;
16522;SDS011;19889;52.546;13.348;2024-03-06T03:04:48;15.13;;;10.73;;
16522;SDS011;19889;52.546;13.348;2024-03-06T03:07:16;14.63;;;11.50;;
16522;SDS011;19889;52.546;13.348;2024-03-06T03:09:43;15.03;;;10.90;;
16522;SDS011;19889;52.546;13.348;2024-03-06T03:12:12;14.80;;;10.93;;
16522;SDS011;19889;52.546;13.348;2024-03-06T03:14:39;14.87;;;11.60;;
16522;SDS011;19889;52.546;13.348;2024-03-06T03:17:07;14.80;;;11.03;;
16522;SDS011;19889;52.546;13.348;2024-03-06T03:19:34;16.57;;;11.27;;
16522;SDS011;19889;52.546;13.348;2024-03-06T03:22:01;14.83;;;10.70;;
16522;SDS011;19889;52.546;13.348;2024-03-06T03:24:29;14.10;;;9.80;;
16522;SDS011;19889;52.546;13.348;2024-03-06T03:26:56;15.13;;;10.73;;
16522;SDS011;19889;52.546;13.348;2024-03-06T03:29:25;16.77;;;10.90;;
16522;SDS011;19889;52.546;13.348;2024-03-06T03:31:52;13.00;;;10.17;;
16522;SDS011;19889;52.546;13.348;2024-03-06T03:34:19;12.27;;;10.20;;
16522;SDS011;19889;52.546;13.348;2024-03-06T03:36:46;14.20;;;10.63;;
16522;SDS011;19889;52.546;13.348;2024-03-06T03:39:14;13.60;;;10.50;;
16522;SDS011;19889;52.546;13.348;2024-03-06T03:41:44;11.47;;;9.43;;
16522;SDS011;19889;52.546;13.348;2024-03-06T03:44:12;13.37;;;9.93;;
16522;SDS011;19889;52.546;13.348;2024-03-06T03:46:41;13.97;;;9.97;;
16522;SDS011;19889;52.546;13.348;2024-03-06T03:49:09;13.63;;;9.57;;
16522;SDS011;19889;52.546;13.348;2024-03-06T03:51:36;15.37;;;10.27;;
16522;SDS011;19889;52.546;13.348;2024-03-06T03:54:04;14.37;;;10.57;;
16522;SDS011;19889;52.546;13.348;2024-03-06T03:56:32;13.43;;;9.73;;
16522;SDS011;19889;52.546;13.348;2024-03-06T03:58:59;13.27;;;9.73;;
16522;SDS011;19889;52.546;13.348;2024-03-06T04:01:26;14.10;;;10.60;;
16522;SDS011;19889;52.546;13.348;2024-03-06T04:03:55;12.73;;;9.77;;
16522;SDS011;19889;52.546;13.348;2024-03-06T04:06:22;11.33;;;9.30;;
16522;SDS011;19889;52.546;13.348;2024-03-06T04:08:50;13.70;;;10.10;;
16522;SDS011;19889;52.546;13.348;2024-03-06T04:11:17;14.43;;;10.50;;
16522;SDS011;19889;52.546;13.348;2024-03-06T04:13:44;14.57;;;10.03;;
16522;SDS011;19889;52.546;13.348;2024-03-06T04:16:15;15.33;;;10.67;;
16522;SDS011;19889;52.546;13.348;2024-03-06T04:18:43;13.97;;;10.40;;
16522;SDS011;19889;52.546;13.348;2024-03-06T04:21:13;14.93;;;11.10;;
16522;SDS011;19889;52.546;13.348;2024-03-06T04:23:40;14.17;;;9.87;;
16522;SDS011;19889;52.546;13.348;2024-03-06T04:26:08;13.17;;;9.93;;
16522;SDS011;19889;52.546;13.348;2024-03-06T04:28:35;12.60;;;9.87;;
16522;SDS011;19889;52.546;13.348;2024-03-06T04:31:02;12.57;;;9.80;;
16522;SDS011;19889;52.546;13.348;2024-03-06T04:33:30;13.97;;;10.07;;
16522;SDS011;19889;52.546;13.348;2024-03-06T04:35:57;12.17;;;8.90;;
16522;SDS011;19889;52.546;13.348;2024-03-06T04:38:28;12.03;;;9.60;;
16522;SDS011;19889;52.546;13.348;2024-03-06T04:40:56;10.53;;;9.10;;
16522;SDS011;19889;52.546;13.348;2024-03-06T04:43:23;13.60;;;10.27;;
16522;SDS011;19889;52.546;13.348;2024-03-06T04:45:50;13.80;;;10.17;;
16522;SDS011;19889;52.546;13.348;2024-03-06T04:48:17;13.10;;;9.87;;
16522;SDS011;19889;52.546;13.348;2024-03-06T04:50:45;13.67;;;10.70;;
16522;SDS011;19889;52.546;13.348;2024-03-06T04:53:12;12.63;;;10.20;;
16522;SDS011;19889;52.546;13.348;2024-03-06T04:55:41;15.00;;;9.90;;
16522;SDS011;19889;52.546;13.348;2024-03-06T04:58:08;11.13;;;8.37;;
16522;SDS011;19889;52.546;13.348;2024-03-06T05:00:35;14.13;;;10.07;;
16522;SDS011;19889;52.546;13.348;2024-03-06T05:03:02;11.33;;;9.03;;
16522;SDS011;19889;52.546;13.348;2024-03-06T05:05:30;12.67;;;9.67;;
16522;SDS011;19889;52.546;13.348;2024-03-06T05:07:57;13.20;;;9.30;;
16522;SDS011;19889;52.546;13.348;2024-03-06T05:10:24;12.97;;;9.23;;
16522;SDS011;19889;52.546;13.348;2024-03-06T05:12:53;12.77;;;9.53;;
16522;SDS011;19889;52.546;13.348;2024-03-06T05:15:21;14.43;;;9.43;;
16522;SDS011;19889;52.546;13.348;2024-03-06T05:17:48;13.47;;;9.87;;
16522;SDS011;19889;52.546;13.348;2024-03-06T05:20:15;12.63;;;10.37;;
16522;SDS011;19889;52.546;13.348;2024-03-06T05:22:43;13.30;;;9.70;;
16522;SDS011;19889;52.546;13.348;2024-03-06T05:25:10;16.57;;;10.67;;
16522;SDS011;19889;52.546;13.348;2024-03-06T05:27:37;14.80;;;10.30;;
16522;SDS011;19889;52.546;13.348;2024-03-06T05:30:06;13.20;;;9.33;;
16522;SDS011;19889;52.546;13.348;2024-03-06T05:32:34;13.57;;;10.03;;
16522;SDS011;19889;52.546;13.348;2024-03-06T05:35:01;16.23;;;10.27;;
16522;SDS011;19889;52.546;13.348;2024-03-06T05:37:29;13.83;;;10.00;;
16522;SDS011;19889;52.546;13.348;2024-03-06T05:39:56;13.00;;;9.13;;
16522;SDS011;19889;52.546;13.348;2024-03-06T05:42:23;12.87;;;9.50;;
16522;SDS011;19889;52.546;13.348;2024-03-06T05:44:50;14.63;;;9.23;;
16522;SDS011;19889;52.546;13.348;2024-03-06T05:47:21;15.77;;;9.63;;
16522;SDS011;19889;52.546;13.348;2024-03-06T05:49:48;14.97;;;10.20;;
16522;SDS011;19889;52.546;13.348;2024-03-06T05:52:15;13.30;;;10.33;;
16522;SDS011;19889;52.546;13.348;2024-03-06T05:54:42;13.23;;;9.70;;
16522;SDS011;19889;52.546;13.348;2024-03-06T05:57:09;14.43;;;10.33;;
16522;SDS011;19889;52.546;13.348;2024-03-06T05:59:37;13.53;;;10.03;;
16522;SDS011;19889;52.546;13.348;2024-03-06T06:02:05;13.40;;;10.63;;
16522;SDS011;19889;52.546;13.348;2024-03-06T06:04:34;11.93;;;10.10;;
16522;SDS011;19889;52.546;13.348;2024-03-06T06:07:01;12.77;;;9.90;;
16522;SDS011;19889;52.546;13.348;2024-03-06T06:09:28;12.67;;;10.67;;
16522;SDS011;19889;52.546;13.348;2024-03-06T06:11:55;13.30;;;10.43;;
16522;SDS011;19889;52.546;13.348;2024-03-06T06:14:23;14.10;;;10.83;;
16522;SDS011;19889;52.546;13.348;2024-03-06T06:16:52;13.70;;;10.27;;
16522;SDS011;19889;52.546;13.348;2024-03-06T06:19:19;13.67;;;11.37;;
16522;SDS011;19889;52.546;13.348;2024-03-06T06:21:48;15.67;;;10.53;;
16522;SDS011;19889;52.546;13.348;2024-03-06T06:24:15;15.70;;;11.17;;
16522;SDS011;19889;52.546;13.348;2024-03-06T06:26:42;15.43;;;10.87;;
16522;SDS011;19889;52.546;13.348;2024-03-06T06:29:10;15.37;;;11.63;;
16522;SDS011;19889;52.546;13.348;2024-03-06T06:31:37;13.97;;;10.43;;
16522;SDS011;19889;52.546;13.348;2024-03-06T06:34:04;15.53;;;12.17;;
16522;SDS011;19889;52.546;13.348;2024-03-06T06:36:32;16.57;;;11.80;;
16522;SDS011;19889;52.546;13.348;2024-03-06T06:39:00;19.23;;;13.20;;
16522;SDS011;19889;52.546;13.348;2024-03-06T06:41:28;19.40;;;13.73;;
16522;SDS011;19889;52.546;13.348;2024-03-06T06:43:55;23.30;;;13.33;;
16522;SDS011;19889;52.546;13.348;2024-03-06T06:46:22;18.73;;;12.93;;
16522;SDS011;19889;52.546;13.348;2024-03-06T06:48:51;17.60;;;11.80;;
16522;SDS011;19889;52.546;13.348;2024-03-06T06:51:19;18.73;;;12.60;;
16522;SDS011;19889;52.546;13.348;2024-03-06T06:53:48;17.27;;;13.13;;
16522;SDS011;19889;52.546;13.348;2024-03-06T06:56:17;18.13;;;13.57;;
16522;SDS011;19889;52.546;13.348;2024-03-06T06:58:44;17.23;;;12.67;;
16522;SDS011;19889;52.546;13.348;2024-03-06T07:01:12;16.63;;;12.83;;
16522;SDS011;19889;52.546;13.348;2024-03-06T07:03:41;18.53;;;13.27;;
16522;SDS011;19889;52.546;13.348;2024-03-06T07:06:09;18.73;;;12.43;;
16522;SDS011;19889;52.546;13.348;2024-03-06T07:08:36;16.27;;;11.77;;
16522;SDS011;19889;52.546;13.348;2024-03-06T07:11:04;17.37;;;12.50;;
16522;SDS011;19889;52.546;13.348;2024-03-06T07:13:33;16.03;;;11.93;;
16522;SDS011;19889;52.546;13.348;2024-03-06T07:16:02;15.40;;;11.80;;
16522;SDS011;19889;52.546;13.348;2024-03-06T07:18:29;19.77;;;12.50;;
16522;SDS011;19889;52.546;13.348;2024-03-06T07:20:57;16.13;;;11.50;;
16522;SDS011;19889;52.546;13.348;2024-03-06T07:23:24;13.87;;;10.93;;
16522;SDS011;19889;52.546;13.348;2024-03-06T07:25:52;17.90;;;12.40;;
16522;SDS011;19889;52.546;13.348;2024-03-06T07:28:19;17.93;;;12.13;;
16522;SDS011;19889;52.546;13.348;2024-03-06T07:30:48;16.10;;;12.27;;
16522;SDS011;19889;52.546;13.348;2024-03-06T07:33:16;13.47;;;10.87;;
16522;SDS011;19889;52.546;13.348;2024-03-06T07:35:43;14.00;;;10.53;;
16522;SDS011;19889;52.546;13.348;2024-03-06T07:38:10;17.73;;;12.37;;
16522;SDS011;19889;52.546;13.348;2024-03-06T07:40:38;15.90;;;11.43;;
16522;SDS011;19889;52.546;13.348;2024-03-06T07:43:05;14.30;;;11.47;;
16522;SDS011;19889;52.546;13.348;2024-03-06T07:45:32;16.77;;;11.80;;
16522;SDS011;19889;52.546;13.348;2024-03-06T07:48:01;15.80;;;11.77;;
16522;SDS011;19889;52.546;13.348;2024-03-06T07:50:29;14.37;;;10.83;;
16522;SDS011;19889;52.546;13.348;2024-03-06T07:52:56;16.33;;;11.70;;
16522;SDS011;19889;52.546;13.348;2024-03-06T07:55:23;15.87;;;11.77;;
16522;SDS011;19889;52.546;13.348;2024-03-06T07:57:51;15.40;;;9.87;;
16522;SDS011;19889;52.546;13.348;2024-03-06T08:00:18;12.63;;;10.07;;
16522;SDS011;19889;52.546;13.348;2024-03-06T08:02:47;13.37;;;10.27;;
16522;SDS011;19889;52.546;13.348;2024-03-06T08:05:17;13.17;;;10.17;;
16522;SDS011;19889;52.546;13.348;2024-03-06T08:07:44;13.00;;;9.77;;
16522;SDS011;19889;52.546;13.348;2024-03-06T08:10:12;13.27;;;10.00;;
16522;SDS011;19889;52.546;13.348;2024-03-06T08:12:40;11.63;;;8.27;;
16522;SDS011;19889;52.546;13.348;2024-03-06T08:15:08;11.87;;;9.13;;
16522;SDS011;19889;52.546;13.348;2024-03-06T08:17:38;12.43;;;9.70;;
16522;SDS011;19889;52.546;13.348;2024-03-06T08:20:07;14.20;;;11.33;;
16522;SDS011;19889;52.546;13.348;2024-03-06T08:22:37;12.93;;;9.60;;
16522;SDS011;19889;52.546;13.348;2024-03-06T08:25:06;11.83;;;9.27;;
16522;SDS011;19889;52.546;13.348;2024-03-06T08:27:34;11.15;;;9.10;;
16522;SDS011;19889;52.546;13.348;2024-03-06T08:30:02;9.90;;;8.10;;
16522;SDS011;19889;52.546;13.348;2024-03-06T08:32:30;10.23;;;8.60;;
16522;SDS011;19889;52.546;13.348;2024-03-06T08:34:58;10.40;;;8.90;;
16522;SDS011;19889;52.546;13.348;2024-03-06T08:37:26;9.80;;;8.57;;
16522;SDS011;19889;52.546;13.348;2024-03-06T08:39:54;7.93;;;7.15;;
16522;SDS011;19889;52.546;13.348;2024-03-06T08:42:22;7.47;;;6.68;;
16522;SDS011;19889;52.546;13.348;2024-03-06T08:44:49;7.53;;;6.72;;
16522;SDS011;19889;52.546;13.348;2024-03-06T08:47:16;7.03;;;6.32;;
16522;SDS011;19889;52.546;13.348;2024-03-06T08:49:43;7.95;;;7.07;;
16522;SDS011;19889;52.546;13.348;2024-03-06T08:52:11;7.53;;;6.82;;
16522;SDS011;19889;52.546;13.348;2024-03-06T08:54:39;8.35;;;7.03;;
16522;SDS011;19889;52.546;13.348;2024-03-06T08:57:09;8.27;;;7.30;;
16522;SDS011;19889;52.546;13.348;2024-03-06T08:59:37;17.25;;;12.27;;
16522;SDS011;19889;52.546;13.348;2024-03-06T09:02:14;13.48;;;10.57;;
16522;SDS011;19889;52.546;13.348;2024-03-06T09:04:42;10.52;;;8.65;;
16522;SDS011;19889;52.546;13.348;2024-03-06T09:07:10;9.97;;;7.20;;
16522;SDS011;19889;52.546;13.348;2024-03-06T09:09:37;10.00;;;7.60;;
16522;SDS011;19889;52.546;13.348;2024-03-06T09:12:06;10.90;;;7.07;;
16522;SDS011;19889;52.546;13.348;2024-03-06T09:14:37;14.43;;;8.47;;
16522;SDS011;19889;52.546;13.348;2024-03-06T09:17:05;11.17;;;7.77;;
16522;SDS011;19889;52.546;13.348;2024-03-06T09:19:34;12.23;;;7.70;;
16522;SDS011;19889;52.546;13.348;2024-03-06T09:22:02;12.00;;;7.10;;
16522;SDS011;19889;52.546;13.348;2024-03-06T09:24:29;14.87;;;8.30;;
16522;SDS011;19889;52.546;13.348;2024-03-06T09:26:56;16.20;;;9.33;;
16522;SDS011;19889;52.546;13.348;2024-03-06T09:29:24;18.40;;;9.40;;
16522;SDS011;19889;52.546;13.348;2024-03-06T09:31:52;16.77;;;9.23;;
16522;SDS011;19889;52.546;13.348;2024-03-06T09:34:20;15.33;;;8.10;;
16522;SDS011;19889;52.546;13.348;2024-03-06T09:36:48;16.80;;;8.50;;
16522;SDS011;19889;52.546;13.348;2024-03-06T09:39:16;27.17;;;10.80;;
16522;SDS011;19889;52.546;13.348;2024-03-06T09:41:45;21.37;;;9.23;;
16522;SDS011;19889;52.546;13.348;2024-03-06T09:44:14;12.40;;;6.60;;
16522;SDS011;19889;52.546;13.348;2024-03-06T09:46:42;13.50;;;7.90;;
16522;SDS011;19889;52.546;13.348;2024-03-06T09:49:12;20.67;;;8.93;;
16522;SDS011;19889;52.546;13.348;2024-03-06T09:51:42;13.60;;;6.93;;
16522;SDS011;19889;52.546;13.348;2024-03-06T09:54:11;12.90;;;7.30;;
16522;SDS011;19889;52.546;13.348;2024-03-06T09:56:40;18.67;;;8.17;;
16522;SDS011;19889;52.546;13.348;2024-03-06T09:59:10;20.03;;;8.77;;
16522;SDS011;19889;52.546;13.348;2024-03-06T10:01:39;12.93;;;7.40;;
16522;SDS011;19889;52.546;13.348;2024-03-06T10:04:20;15.27;;;8.10;;
16522;SDS011;19889;52.546;13.348;2024-03-06T10:06:48;14.87;;;7.87;;
16522;SDS011;19889;52.546;13.348;2024-03-06T10:09:17;19.87;;;8.80;;
16522;SDS011;19889;52.546;13.348;2024-03-06T10:11:44;20.07;;;8.40;;
16522;SDS011;19889;52.546;13.348;2024-03-06T10:14:12;17.97;;;8.97;;
16522;SDS011;19889;52.546;13.348;2024-03-06T10:16:51;11.13;;;6.83;;
16522;SDS011;19889;52.546;13.348;2024-03-06T10:19:21;22.03;;;10.13;;
16522;SDS011;19889;52.546;13.348;2024-03-06T10:21:49;31.57;;;13.27;;
16522;SDS011;19889;52.546;13.348;2024-03-06T10:24:20;15.73;;;8.07;;
16522;SDS011;19889;52.546;13.348;2024-03-06T10:26:49;21.23;;;9.37;;
16522;SDS011;19889;52.546;13.348;2024-03-06T10:29:17;18.90;;;8.93;;
16522;SDS011;19889;52.546;13.348;2024-03-06T10:31:54;15.60;;;7.27;;
16522;SDS011;19889;52.546;13.348;2024-03-06T10:34:24;17.23;;;7.87;;
16522;SDS011;19889;52.546;13.348;2024-03-06T10:36:53;20.17;;;8.93;;
16522;SDS011;19889;52.546;13.348;2024-03-06T10:39:21;21.17;;;9.13;;
16522;SDS011;19889;52.546;13.348;2024-03-06T10:41:51;23.07;;;9.20;;
16522;SDS011;19889;52.546;13.348;2024-03-06T10:44:20;14.53;;;7.80;;
16522;SDS011;19889;52.546;13.348;2024-03-06T10:46:51;11.77;;;7.47;;
16522;SDS011;19889;52.546;13.348;2024-03-06T10:49:27;18.13;;;9.47;;
16522;SDS011;19889;52.546;13.348;2024-03-06T10:51:57;13.43;;;8.03;;
16522;SDS011;19889;52.546;13.348;2024-03-06T10:54:26;13.93;;;8.50;;
16522;SDS011;19889;52.546;13.348;2024-03-06T10:56:55;17.70;;;9.47;;
16522;SDS011;19889;52.546;13.348;2024-03-06T10:59:24;13.40;;;7.97;;
16522;SDS011;19889;52.546;13.348;2024-03-06T11:01:54;15.57;;;9.57;;
16522;SDS011;19889;52.546;13.348;2024-03-06T11:04:23;12.00;;;8.10;;
16522;SDS011;19889;52.546;13.348;2024-03-06T11:06:54;15.37;;;9.80;;
16522;SDS011;19889;52.546;13.348;2024-03-06T11:09:21;14.57;;;9.30;;
16522;SDS011;19889;52.546;13.348;2024-03-06T11:11:49;12.27;;;7.70;;
16522;SDS011;19889;52.546;13.348;2024-03-06T11:14:17;14.30;;;8.80;;
16522;SDS011;19889;52.546;13.348;2024-03-06T11:16:58;10.53;;;7.47;;
16522;SDS011;19889;52.546;13.348;2024-03-06T11:19:28;13.87;;;9.03;;
16522;SDS011;19889;52.546;13.348;2024-03-06T11:21:56;13.30;;;9.00;;
16522;SDS011;19889;52.546;13.348;2024-03-06T11:24:31;14.93;;;9.83;;
16522;SDS011;19889;52.546;13.348;2024-03-06T11:27:00;18.07;;;10.97;;
16522;SDS011;19889;52.546;13.348;2024-03-06T11:29:28;17.17;;;10.10;;
16522;SDS011;19889;52.546;13.348;2024-03-06T11:32:00;14.30;;;9.30;;
16522;SDS011;19889;52.546;13.348;2024-03-06T11:34:29;14.97;;;8.70;;
16522;SDS011;19889;52.546;13.348;2024-03-06T11:36:57;14.77;;;9.07;;
16522;SDS011;19889;52.546;13.348;2024-03-06T11:39:27;18.30;;;11.30;;
16522;SDS011;19889;52.546;13.348;2024-03-06T11:41:56;16.53;;;10.33;;
16522;SDS011;19889;52.546;13.348;2024-03-06T11:44:23;14.17;;;9.87;;
16522;SDS011;19889;52.546;13.348;2024-03-06T11:46:56;15.77;;;11.60;;
16522;SDS011;19889;52.546;13.348;2024-03-06T11:49:25;19.23;;;12.13;;
16522;SDS011;19889;52.546;13.348;2024-03-06T11:51:56;18.53;;;11.57;;
16522;SDS011;19889;52.546;13.348;2024-03-06T11:54:24;19.97;;;12.13;;
16522;SDS011;19889;52.546;13.348;2024-03-06T11:56:53;16.63;;;10.80;;
16522;SDS011;19889;52.546;13.348;2024-03-06T11:59:21;16.33;;;12.17;;
16522;SDS011;19889;52.546;13.348;2024-03-06T12:01:50;14.10;;;9.30;;
16522;SDS011;19889;52.546;13.348;2024-03-06T12:04:18;16.87;;;11.80;;
16522;SDS011;19889;52.546;13.348;2024-03-06T12:06:46;14.70;;;11.50;;
16522;SDS011;19889;52.546;13.348;2024-03-06T12:09:16;21.60;;;13.73;;
16522;SDS011;19889;52.546;13.348;2024-03-06T12:11:43;15.63;;;10.97;;
16522;SDS011;19889;52.546;13.348;2024-03-06T12:14:13;17.40;;;12.37;;
16522;SDS011;19889;52.546;13.348;2024-03-06T12:16:43;17.67;;;11.57;;
16522;SDS011;19889;52.546;13.348;2024-03-06T12:19:10;14.57;;;10.63;;
16522;SDS011;19889;52.546;13.348;2024-03-06T12:21:38;12.53;;;8.70;;
16522;SDS011;19889;52.546;13.348;2024-03-06T12:24:07;15.87;;;11.00;;
16522;SDS011;19889;52.546;13.348;2024-03-06T12:26:37;16.67;;;10.10;;
16522;SDS011;19889;52.546;13.348;2024-03-06T12:29:07;14.47;;;9.57;;
16522;SDS011;19889;52.546;13.348;2024-03-06T12:31:36;11.57;;;7.80;;
16522;SDS011;19889;52.546;13.348;2024-03-06T12:34:05;11.00;;;8.20;;
16522;SDS011;19889;52.546;13.348;2024-03-06T12:36:33;12.77;;;8.40;;
16522;SDS011;19889;52.546;13.348;2024-03-06T12:39:01;15.33;;;9.97;;
16522;SDS011;19889;52.546;13.348;2024-03-06T12:41:39;11.57;;;8.40;;
16522;SDS011;19889;52.546;13.348;2024-03-06T12:44:06;10.93;;;7.50;;
16522;SDS011;19889;52.546;13.348;2024-03-06T12:46:34;12.07;;;8.50;;
16522;SDS011;19889;52.546;13.348;2024-03-06T12:49:07;10.53;;;7.90;;
16522;SDS011;19889;52.546;13.348;2024-03-06T12:51:34;12.87;;;8.10;;
16522;SDS011;19889;52.546;13.348;2024-03-06T12:54:01;11.60;;;7.07;;
16522;SDS011;19889;52.546;13.348;2024-03-06T12:56:29;11.77;;;7.93;;
16522;SDS011;19889;52.546;13.348;2024-03-06T12:58:57;12.30;;;8.07;;
16522;SDS011;19889;52.546;13.348;2024-03-06T13:01:25;14.73;;;10.60;;
16522;SDS011;19889;52.546;13.348;2024-03-06T13:03:52;11.57;;;8.33;;
16522;SDS011;19889;52.546;13.348;2024-03-06T13:06:19;13.87;;;9.43;;
16522;SDS011;19889;52.546;13.348;2024-03-06T13:08:46;11.47;;;7.43;;
16522;SDS011;19889;52.546;13.348;2024-03-06T13:11:14;14.67;;;9.40;;
16522;SDS011;19889;52.546;13.348;2024-03-06T13:13:41;14.30;;;9.47;;
16522;SDS011;19889;52.546;13.348;2024-03-06T13:16:09;14.10;;;9.73;;
16522;SDS011;19889;52.546;13.348;2024-03-06T13:18:38;14.87;;;9.33;;
16522;SDS011;19889;52.546;13.348;2024-03-06T13:21:05;12.50;;;8.43;;
16522;SDS011;19889;52.546;13.348;2024-03-06T13:23:32;16.63;;;9.77;;
16522;SDS011;19889;52.546;13.348;2024-03-06T13:26:00;18.17;;;11.50;;
16522;SDS011;19889;52.546;13.348;2024-03-06T13:28:28;22.67;;;12.57;;
16522;SDS011;19889;52.546;13.348;2024-03-06T13:30:55;16.90;;;10.97;;
16522;SDS011;19889;52.546;13.348;2024-03-06T13:33:24;23.07;;;13.00;;
16522;SDS011;19889;52.546;13.348;2024-03-06T13:35:53;16.73;;;10.83;;
16522;SDS011;19889;52.546;13.348;2024-03-06T13:38:20;15.73;;;8.77;;
16522;SDS011;19889;52.546;13.348;2024-03-06T13:40:48;16.53;;;10.23;;
16522;SDS011;19889;52.546;13.348;2024-03-06T13:43:15;19.10;;;11.17;;
16522;SDS011;19889;52.546;13.348;2024-03-06T13:45:47;20.07;;;10.57;;
16522;SDS011;19889;52.546;13.348;2024-03-06T13:48:15;17.87;;;10.47;;
16522;SDS011;19889;52.546;13.348;2024-03-06T13:53:23;14.67;;;9.33;;
16522;SDS011;19889;52.546;13.348;2024-03-06T13:55:50;17.13;;;10.63;;
16522;SDS011;19889;52.546;13.348;2024-03-06T13:58:18;18.23;;;9.63;;
16522;SDS011;19889;52.546;13.348;2024-03-06T14:00:45;17.47;;;11.20;;
16522;SDS011;19889;52.546;13.348;2024-03-06T14:03:12;20.70;;;12.03;;
16522;SDS011;19889;52.546;13.348;2024-03-06T14:05:40;17.77;;;10.87;;
16522;SDS011;19889;52.546;13.348;2024-03-06T14:08:07;18.07;;;10.77;;
16522;SDS011;19889;52.546;13.348;2024-03-06T14:10:38;14.13;;;9.37;;
16522;SDS011;19889;52.546;13.348;2024-03-06T14:13:06;17.10;;;9.87;;
16522;SDS011;19889;52.546;13.348;2024-03-06T14:15:33;18.67;;;11.40;;
16522;SDS011;19889;52.546;13.348;2024-03-06T14:18:01;20.20;;;12.23;;
16522;SDS011;19889;52.546;13.348;2024-03-06T14:20:29;14.97;;;9.83;;
16522;SDS011;19889;52.546;13.348;2024-03-06T14:22:56;18.13;;;11.33;;